sensor_id;sensor_type;location;lat;lon;timestamp;P1;P2;P0
33948;PMS7003;20229;49.856;19.030;2023-05-10T00:01:32;66;57;49
33948;PMS7003;20229;49.856;19.030;2023-05-10T00:06:45;65;59;53
33948;PMS7003;20229;49.856;19.030;2023-05-10T00:11:59;64;56;51
33948;PMS7003;20229;49.856;19.030;2023-05-10T00:17:13;63;57;51
33948;PMS7003;20229;49.856;19.030;2023-05-10T00:22:27;82;71;68
33948;PMS7003;20229;49.856;19.030;2023-05-10T00:27:40;77;68;61
33948;PMS7003;20229;49.856;19.030;2023-05-10T00:32:54;90;81;74
33948;PMS7003;20229;49.856;19.030;2023-05-10T00:38:08;87;78;69
33948;PMS7003;20229;49.856;19.030;2023-05-10T00:43:22;85;77;70
33948;PMS7003;20229;49.856;19.030;2023-05-10T00:48:36;23;18;14
33948;PMS7003;20229;49.856;19.030;2023-05-10T00:53:50;28;24;20
33948;PMS7003;20229;49.856;19.030;2023-05-10T00:59:05;66;55;48
33948;PMS7003;20229;49.856;19.030;2023-05-10T01:04:22;78;64;60
33948;PMS7003;20229;49.856;19.030;2023-05-10T01:09:38;79;69;65
33948;PMS7003;20229;49.856;19.030;2023-05-10T01:14:52;89;81;78
33948;PMS7003;20229;49.856;19.030;2023-05-10T01:20:07;87;80;77
33948;PMS7003;20229;49.856;19.030;2023-05-10T01:25:32;87;79;76
33948;PMS7003;20229;49.856;19.030;2023-05-10T01:37:06;87;78;76
33948;PMS7003;20229;49.856;19.030;2023-05-10T01:53:06;81;71;69
33948;PMS7003;20229;49.856;19.030;2023-05-10T01:58:27;88;82;80
33948;PMS7003;20229;49.856;19.030;2023-05-10T02:03:44;87;77;74
33948;PMS7003;20229;49.856;19.030;2023-05-10T02:09:01;85;79;76
33948;PMS7003;20229;49.856;19.030;2023-05-10T02:14:16;86;80;77
33948;PMS7003;20229;49.856;19.030;2023-05-10T02:19:34;86;78;76
33948;PMS7003;20229;49.856;19.030;2023-05-10T02:24:50;87;81;77
33948;PMS7003;20229;49.856;19.030;2023-05-10T02:30:06;84;76;73
33948;PMS7003;20229;49.856;19.030;2023-05-10T02:35:21;83;73;70
33948;PMS7003;20229;49.856;19.030;2023-05-10T02:40:37;88;81;78
33948;PMS7003;20229;49.856;19.030;2023-05-10T02:45:54;105;102;99
33948;PMS7003;20229;49.856;19.030;2023-05-10T02:51:08;90;85;82
33948;PMS7003;20229;49.856;19.030;2023-05-10T02:56:31;108;106;105
33948;PMS7003;20229;49.856;19.030;2023-05-10T03:01:48;88;81;78
33948;PMS7003;20229;49.856;19.030;2023-05-10T03:07:02;92;86;83
33948;PMS7003;20229;49.856;19.030;2023-05-10T03:23:35;93;89;87
33948;PMS7003;20229;49.856;19.030;2023-05-10T03:28:57;87;83;80
33948;PMS7003;20229;49.856;19.030;2023-05-10T03:34:12;87;79;76
33948;PMS7003;20229;49.856;19.030;2023-05-10T03:39:26;87;79;75
33948;PMS7003;20229;49.856;19.030;2023-05-10T03:44:40;91;84;81
33948;PMS7003;20229;49.856;19.030;2023-05-10T03:49:55;90;85;81
33948;PMS7003;20229;49.856;19.030;2023-05-10T03:55:08;87;84;80
33948;PMS7003;20229;49.856;19.030;2023-05-10T04:00:22;92;86;82
33948;PMS7003;20229;49.856;19.030;2023-05-10T04:05:36;94;91;87
33948;PMS7003;20229;49.856;19.030;2023-05-10T04:10:50;94;89;85
33948;PMS7003;20229;49.856;19.030;2023-05-10T04:16:05;90;88;85
33948;PMS7003;20229;49.856;19.030;2023-05-10T04:21:19;90;88;85
33948;PMS7003;20229;49.856;19.030;2023-05-10T04:26:33;115;113;111
33948;PMS7003;20229;49.856;19.030;2023-05-10T04:31:47;113;112;109
33948;PMS7003;20229;49.856;19.030;2023-05-10T04:37:02;122;120;118
33948;PMS7003;20229;49.856;19.030;2023-05-10T04:42:20;106;106;103
33948;PMS7003;20229;49.856;19.030;2023-05-10T04:47:34;114;112;111
33948;PMS7003;20229;49.856;19.030;2023-05-10T04:52:49;96;95;92
33948;PMS7003;20229;49.856;19.030;2023-05-10T04:58:04;104;102;101
33948;PMS7003;20229;49.856;19.030;2023-05-10T05:03:17;122;119;117
33948;PMS7003;20229;49.856;19.030;2023-05-10T05:08:31;122;120;118
33948;PMS7003;20229;49.856;19.030;2023-05-10T05:13:45;117;116;112
33948;PMS7003;20229;49.856;19.030;2023-05-10T05:19:00;106;104;101
33948;PMS7003;20229;49.856;19.030;2023-05-10T05:24:14;91;88;85
33948;PMS7003;20229;49.856;19.030;2023-05-10T05:29:28;94;88;83
33948;PMS7003;20229;49.856;19.030;2023-05-10T05:34:43;97;96;91
33948;PMS7003;20229;49.856;19.030;2023-05-10T05:39:58;78;72;67
33948;PMS7003;20229;49.856;19.030;2023-05-10T05:45:14;94;90;86
33948;PMS7003;20229;49.856;19.030;2023-05-10T05:50:28;102;100;99
33948;PMS7003;20229;49.856;19.030;2023-05-10T05:56:03;77;71;66
33948;PMS7003;20229;49.856;19.030;2023-05-10T06:01:07;100;97;94
33948;PMS7003;20229;49.856;19.030;2023-05-10T06:06:21;103;103;101
33948;PMS7003;20229;49.856;19.030;2023-05-10T06:11:35;97;95;94
33948;PMS7003;20229;49.856;19.030;2023-05-10T06:16:49;93;93;91
33948;PMS7003;20229;49.856;19.030;2023-05-10T06:22:04;71;70;67
33948;PMS7003;20229;49.856;19.030;2023-05-10T06:27:18;58;51;48
33948;PMS7003;20229;49.856;19.030;2023-05-10T06:32:32;27;24;19
33948;PMS7003;20229;49.856;19.030;2023-05-10T06:37:45;61;55;54
33948;PMS7003;20229;49.856;19.030;2023-05-10T06:43:00;81;80;79
33948;PMS7003;20229;49.856;19.030;2023-05-10T06:48:14;90;90;89
33948;PMS7003;20229;49.856;19.030;2023-05-10T06:53:28;101;100;99
33948;PMS7003;20229;49.856;19.030;2023-05-10T06:58:43;61;53;52
33948;PMS7003;20229;49.856;19.030;2023-05-10T07:03:57;58;51;48
33948;PMS7003;20229;49.856;19.030;2023-05-10T07:09:10;69;68;66
33948;PMS7003;20229;49.856;19.030;2023-05-10T07:14:25;67;66;65
33948;PMS7003;20229;49.856;19.030;2023-05-10T07:19:39;65;59;58
33948;PMS7003;20229;49.856;19.030;2023-05-10T07:24:56;68;65;64
33948;PMS7003;20229;49.856;19.030;2023-05-10T07:30:10;69;66;65
33948;PMS7003;20229;49.856;19.030;2023-05-10T07:35:24;82;81;80
33948;PMS7003;20229;49.856;19.030;2023-05-10T07:40:39;80;79;78
33948;PMS7003;20229;49.856;19.030;2023-05-10T07:45:54;82;81;80
33948;PMS7003;20229;49.856;19.030;2023-05-10T07:51:07;73;71;70
33948;PMS7003;20229;49.856;19.030;2023-05-10T07:56:23;81;80;80
33948;PMS7003;20229;49.856;19.030;2023-05-10T08:01:42;74;72;71
33948;PMS7003;20229;49.856;19.030;2023-05-10T08:06:56;69;67;66
33948;PMS7003;20229;49.856;19.030;2023-05-10T08:12:11;80;78;78
33948;PMS7003;20229;49.856;19.030;2023-05-10T08:17:24;81;80;80
33948;PMS7003;20229;49.856;19.030;2023-05-10T08:22:38;59;52;50
33948;PMS7003;20229;49.856;19.030;2023-05-10T08:27:53;65;60;59
33948;PMS7003;20229;49.856;19.030;2023-05-10T08:33:07;65;59;59
33948;PMS7003;20229;49.856;19.030;2023-05-10T08:38:23;95;94;94
33948;PMS7003;20229;49.856;19.030;2023-05-10T08:43:38;86;84;84
33948;PMS7003;20229;49.856;19.030;2023-05-10T08:48:59;64;58;56
33948;PMS7003;20229;49.856;19.030;2023-05-10T08:54:17;72;70;69
33948;PMS7003;20229;49.856;19.030;2023-05-10T08:59:31;75;74;72
33948;PMS7003;20229;49.856;19.030;2023-05-10T09:04:46;80;79;78
33948;PMS7003;20229;49.856;19.030;2023-05-10T09:10:02;79;78;77
33948;PMS7003;20229;49.856;19.030;2023-05-10T09:15:18;66;63;62
33948;PMS7003;20229;49.856;19.030;2023-05-10T09:20:33;142;141;140
33948;PMS7003;20229;49.856;19.030;2023-05-10T09:25:46;55;46;45
33948;PMS7003;20229;49.856;19.030;2023-05-10T09:39:37;69;63;61
33948;PMS7003;20229;49.856;19.030;2023-05-10T09:44:51;63;54;52
33948;PMS7003;20229;49.856;19.030;2023-05-10T09:50:05;50;43;35
33948;PMS7003;20229;49.856;19.030;2023-05-10T09:55:21;59;49;43
33948;PMS7003;20229;49.856;19.030;2023-05-10T10:00:36;64;52;48
33948;PMS7003;20229;49.856;19.030;2023-05-10T10:05:51;65;54;51
33948;PMS7003;20229;49.856;19.030;2023-05-10T10:11:08;100;98;96
33948;PMS7003;20229;49.856;19.030;2023-05-10T10:16:22;97;95;93
33948;PMS7003;20229;49.856;19.030;2023-05-10T10:21:37;113;112;109
33948;PMS7003;20229;49.856;19.030;2023-05-10T10:26:52;118;115;114
33948;PMS7003;20229;49.856;19.030;2023-05-10T10:37:44;113;111;109
33948;PMS7003;20229;49.856;19.030;2023-05-10T10:48:25;79;76;75
33948;PMS7003;20229;49.856;19.030;2023-05-10T10:53:39;74;71;68
33948;PMS7003;20229;49.856;19.030;2023-05-10T10:58:56;74;69;67
33948;PMS7003;20229;49.856;19.030;2023-05-10T11:04:16;79;77;74
33948;PMS7003;20229;49.856;19.030;2023-05-10T11:09:38;81;79;76
33948;PMS7003;20229;49.856;19.030;2023-05-10T11:14:56;95;93;88
33948;PMS7003;20229;49.856;19.030;2023-05-10T11:20:13;105;103;96
33948;PMS7003;20229;49.856;19.030;2023-05-10T11:25:28;93;92;84
33948;PMS7003;20229;49.856;19.030;2023-05-10T11:30:43;87;86;78
33948;PMS7003;20229;49.856;19.030;2023-05-10T11:35:59;78;75;68
33948;PMS7003;20229;49.856;19.030;2023-05-10T11:41:15;76;70;68
33948;PMS7003;20229;49.856;19.030;2023-05-10T11:46:30;63;53;49
33948;PMS7003;20229;49.856;19.030;2023-05-10T11:51:44;66;55;53
33948;PMS7003;20229;49.856;19.030;2023-05-10T11:56:58;64;54;50
33948;PMS7003;20229;49.856;19.030;2023-05-10T12:02:13;67;55;52
33948;PMS7003;20229;49.856;19.030;2023-05-10T12:07:28;63;52;48
33948;PMS7003;20229;49.856;19.030;2023-05-10T12:12:43;67;56;54
33948;PMS7003;20229;49.856;19.030;2023-05-10T12:18:00;63;52;49
33948;PMS7003;20229;49.856;19.030;2023-05-10T12:23:15;68;56;55
33948;PMS7003;20229;49.856;19.030;2023-05-10T12:28:29;76;66;64
33948;PMS7003;20229;49.856;19.030;2023-05-10T12:33:44;64;53;50
33948;PMS7003;20229;49.856;19.030;2023-05-10T12:39:03;67;55;52
33948;PMS7003;20229;49.856;19.030;2023-05-10T12:44:18;66;55;54
33948;PMS7003;20229;49.856;19.030;2023-05-10T12:49:32;64;52;48
33948;PMS7003;20229;49.856;19.030;2023-05-10T12:54:47;65;55;52
33948;PMS7003;20229;49.856;19.030;2023-05-10T13:00:00;78;71;70
33948;PMS7003;20229;49.856;19.030;2023-05-10T13:05:26;63;52;48
33948;PMS7003;20229;49.856;19.030;2023-05-10T13:10:40;60;50;46
33948;PMS7003;20229;49.856;19.030;2023-05-10T13:15:54;59;50;45
33948;PMS7003;20229;49.856;19.030;2023-05-10T13:21:08;64;53;49
33948;PMS7003;20229;49.856;19.030;2023-05-10T13:26:22;65;54;51
33948;PMS7003;20229;49.856;19.030;2023-05-10T13:31:37;71;60;59
33948;PMS7003;20229;49.856;19.030;2023-05-10T13:36:51;62;52;48
33948;PMS7003;20229;49.856;19.030;2023-05-10T13:42:06;65;54;51
33948;PMS7003;20229;49.856;19.030;2023-05-10T13:47:21;64;52;50
33948;PMS7003;20229;49.856;19.030;2023-05-10T13:52:35;66;55;52
33948;PMS7003;20229;49.856;19.030;2023-05-10T13:57:49;65;55;51
33948;PMS7003;20229;49.856;19.030;2023-05-10T14:03:03;63;52;49
33948;PMS7003;20229;49.856;19.030;2023-05-10T14:08:19;63;52;48
33948;PMS7003;20229;49.856;19.030;2023-05-10T14:13:34;64;54;50
33948;PMS7003;20229;49.856;19.030;2023-05-10T14:18:48;63;52;47
33948;PMS7003;20229;49.856;19.030;2023-05-10T14:24:02;66;55;53
33948;PMS7003;20229;49.856;19.030;2023-05-10T14:29:19;69;58;54
33948;PMS7003;20229;49.856;19.030;2023-05-10T14:34:34;76;67;66
33948;PMS7003;20229;49.856;19.030;2023-05-10T14:39:48;68;58;57
33948;PMS7003;20229;49.856;19.030;2023-05-10T14:45:02;66;55;53
33948;PMS7003;20229;49.856;19.030;2023-05-10T14:50:18;68;57;54
33948;PMS7003;20229;49.856;19.030;2023-05-10T14:55:32;70;62;59
33948;PMS7003;20229;49.856;19.030;2023-05-10T15:00:48;71;62;61
33948;PMS7003;20229;49.856;19.030;2023-05-10T15:06:02;75;69;67
33948;PMS7003;20229;49.856;19.030;2023-05-10T15:11:18;72;63;61
33948;PMS7003;20229;49.856;19.030;2023-05-10T15:16:32;72;65;62
33948;PMS7003;20229;49.856;19.030;2023-05-10T15:21:46;78;71;70
33948;PMS7003;20229;49.856;19.030;2023-05-10T15:27:05;71;64;62
33948;PMS7003;20229;49.856;19.030;2023-05-10T15:32:19;75;70;68
33948;PMS7003;20229;49.856;19.030;2023-05-10T15:37:33;68;56;53
33948;PMS7003;20229;49.856;19.030;2023-05-10T15:42:47;76;69;67
33948;PMS7003;20229;49.856;19.030;2023-05-10T15:48:01;78;72;71
33948;PMS7003;20229;49.856;19.030;2023-05-10T15:53:16;78;72;71
33948;PMS7003;20229;49.856;19.030;2023-05-10T15:58:30;73;64;62
33948;PMS7003;20229;49.856;19.030;2023-05-10T16:03:44;76;70;68
33948;PMS7003;20229;49.856;19.030;2023-05-10T16:08:59;76;68;66
33948;PMS7003;20229;49.856;19.030;2023-05-10T16:14:13;78;71;69
33948;PMS7003;20229;49.856;19.030;2023-05-10T16:19:28;74;65;64
33948;PMS7003;20229;49.856;19.030;2023-05-10T16:24:43;73;65;62
33948;PMS7003;20229;49.856;19.030;2023-05-10T16:29:57;79;72;69
33948;PMS7003;20229;49.856;19.030;2023-05-10T16:35:11;82;75;72
33948;PMS7003;20229;49.856;19.030;2023-05-10T16:40:25;72;62;60
33948;PMS7003;20229;49.856;19.030;2023-05-10T16:45:39;74;65;62
33948;PMS7003;20229;49.856;19.030;2023-05-10T16:50:54;79;73;71
33948;PMS7003;20229;49.856;19.030;2023-05-10T16:56:09;77;68;66
33948;PMS7003;20229;49.856;19.030;2023-05-10T17:01:22;88;86;85
33948;PMS7003;20229;49.856;19.030;2023-05-10T17:06:36;92;91;90
33948;PMS7003;20229;49.856;19.030;2023-05-10T17:11:52;87;84;82
33948;PMS7003;20229;49.856;19.030;2023-05-10T17:17:06;76;66;65
33948;PMS7003;20229;49.856;19.030;2023-05-10T17:22:20;75;65;63
33948;PMS7003;20229;49.856;19.030;2023-05-10T17:27:35;91;88;86
33948;PMS7003;20229;49.856;19.030;2023-05-10T17:32:49;92;89;88
33948;PMS7003;20229;49.856;19.030;2023-05-10T17:38:03;86;80;78
33948;PMS7003;20229;49.856;19.030;2023-05-10T17:43:17;101;97;95
33948;PMS7003;20229;49.856;19.030;2023-05-10T17:48:31;91;87;84
33948;PMS7003;20229;49.856;19.030;2023-05-10T17:53:44;85;78;75
33948;PMS7003;20229;49.856;19.030;2023-05-10T17:58:59;102;99;96
33948;PMS7003;20229;49.856;19.030;2023-05-10T18:04:14;99;95;92
33948;PMS7003;20229;49.856;19.030;2023-05-10T18:09:29;97;92;87
33948;PMS7003;20229;49.856;19.030;2023-05-10T18:14:46;97;95;90
33948;PMS7003;20229;49.856;19.030;2023-05-10T18:20:00;106;102;96
33948;PMS7003;20229;49.856;19.030;2023-05-10T18:25:14;108;103;101
33948;PMS7003;20229;49.856;19.030;2023-05-10T18:30:28;102;99;96
33948;PMS7003;20229;49.856;19.030;2023-05-10T18:35:42;97;95;92
33948;PMS7003;20229;49.856;19.030;2023-05-10T18:40:57;106;105;101
33948;PMS7003;20229;49.856;19.030;2023-05-10T18:46:11;103;102;98
33948;PMS7003;20229;49.856;19.030;2023-05-10T18:51:25;100;99;95
33948;PMS7003;20229;49.856;19.030;2023-05-10T18:56:43;107;105;103
33948;PMS7003;20229;49.856;19.030;2023-05-10T19:01:58;103;100;96
33948;PMS7003;20229;49.856;19.030;2023-05-10T19:07:12;117;115;110
33948;PMS7003;20229;49.856;19.030;2023-05-10T19:12:27;104;101;92
33948;PMS7003;20229;49.856;19.030;2023-05-10T19:17:41;204;187;141
33948;PMS7003;20229;49.856;19.030;2023-05-10T19:22:55;187;169;129
33948;PMS7003;20229;49.856;19.030;2023-05-10T19:28:09;133;127;110
33948;PMS7003;20229;49.856;19.030;2023-05-10T19:33:23;143;134;113
33948;PMS7003;20229;49.856;19.030;2023-05-10T19:38:38;124;120;110
33948;PMS7003;20229;49.856;19.030;2023-05-10T19:43:52;102;100;94
33948;PMS7003;20229;49.856;19.030;2023-05-10T19:49:06;102;99;91
33948;PMS7003;20229;49.856;19.030;2023-05-10T19:54:20;97;94;87
33948;PMS7003;20229;49.856;19.030;2023-05-10T19:59:33;99;93;86
33948;PMS7003;20229;49.856;19.030;2023-05-10T20:04:48;117;112;96
33948;PMS7003;20229;49.856;19.030;2023-05-10T20:10:05;115;108;96
33948;PMS7003;20229;49.856;19.030;2023-05-10T20:15:22;130;119;103
33948;PMS7003;20229;49.856;19.030;2023-05-10T20:20:37;113;103;88
33948;PMS7003;20229;49.856;19.030;2023-05-10T20:25:51;125;114;94
33948;PMS7003;20229;49.856;19.030;2023-05-10T20:31:06;108;104;89
33948;PMS7003;20229;49.856;19.030;2023-05-10T20:36:21;113;103;88
33948;PMS7003;20229;49.856;19.030;2023-05-10T20:41:35;102;91;80
33948;PMS7003;20229;49.856;19.030;2023-05-10T20:46:49;103;98;85
33948;PMS7003;20229;49.856;19.030;2023-05-10T20:52:03;108;98;85
33948;PMS7003;20229;49.856;19.030;2023-05-10T20:57:18;101;96;85
33948;PMS7003;20229;49.856;19.030;2023-05-10T21:02:32;88;82;74
33948;PMS7003;20229;49.856;19.030;2023-05-10T21:07:47;98;94;82
33948;PMS7003;20229;49.856;19.030;2023-05-10T21:13:01;102;99;92
33948;PMS7003;20229;49.856;19.030;2023-05-10T21:18:15;91;89;86
33948;PMS7003;20229;49.856;19.030;2023-05-10T21:23:29;65;58;50
33948;PMS7003;20229;49.856;19.030;2023-05-10T21:28:43;103;96;87
33948;PMS7003;20229;49.856;19.030;2023-05-10T21:33:57;122;116;110
33948;PMS7003;20229;49.856;19.030;2023-05-10T21:39:11;166;163;156
33948;PMS7003;20229;49.856;19.030;2023-05-10T21:44:25;456;455;449
33948;PMS7003;20229;49.856;19.030;2023-05-10T21:49:39;425;422;416
33948;PMS7003;20229;49.856;19.030;2023-05-10T21:54:53;349;346;337
33948;PMS7003;20229;49.856;19.030;2023-05-10T22:00:07;345;342;333
33948;PMS7003;20229;49.856;19.030;2023-05-10T22:05:22;252;247;241
33948;PMS7003;20229;49.856;19.030;2023-05-10T22:10:38;200;195;188
33948;PMS7003;20229;49.856;19.030;2023-05-10T22:15:52;125;120;109
33948;PMS7003;20229;49.856;19.030;2023-05-10T22:21:07;107;99;91
33948;PMS7003;20229;49.856;19.030;2023-05-10T22:26:21;91;85;77
33948;PMS7003;20229;49.856;19.030;2023-05-10T22:31:35;96;91;79
33948;PMS7003;20229;49.856;19.030;2023-05-10T22:36:50;94;87;77
33948;PMS7003;20229;49.856;19.030;2023-05-10T22:42:03;94;86;76
33948;PMS7003;20229;49.856;19.030;2023-05-10T22:47:17;92;84;73
33948;PMS7003;20229;49.856;19.030;2023-05-10T22:52:31;71;56;47
33948;PMS7003;20229;49.856;19.030;2023-05-10T22:57:45;76;67;60
33948;PMS7003;20229;49.856;19.030;2023-05-10T23:02:58;83;77;70
33948;PMS7003;20229;49.856;19.030;2023-05-10T23:08:12;113;105;99
33948;PMS7003;20229;49.856;19.030;2023-05-10T23:13:27;115;111;105
33948;PMS7003;20229;49.856;19.030;2023-05-10T23:18:41;109;107;101
33948;PMS7003;20229;49.856;19.030;2023-05-10T23:23:55;109;105;99
33948;PMS7003;20229;49.856;19.030;2023-05-10T23:29:09;108;103;96
33948;PMS7003;20229;49.856;19.030;2023-05-10T23:34:23;97;93;89
33948;PMS7003;20229;49.856;19.030;2023-05-10T23:39:37;100;94;87
33948;PMS7003;20229;49.856;19.030;2023-05-10T23:44:51;93;88;83
33948;PMS7003;20229;49.856;19.030;2023-05-10T23:50:06;79;70;64
33948;PMS7003;20229;49.856;19.030;2023-05-10T23:55:20;86;80;73
